sensor_id;sensor_type;location;lat;lon;timestamp;P1;durP1;ratioP1;P2;durP2;ratioP2
50012;SDS011;35901;48.694;9.476;2023-12-29T00:01:52;2.60;;;2.40;;
50012;SDS011;35901;48.694;9.476;2023-12-29T00:04:20;2.33;;;2.13;;
50012;SDS011;35901;48.694;9.476;2023-12-29T00:06:46;2.47;;;2.10;;
50012;SDS011;35901;48.694;9.476;2023-12-29T00:09:14;2.50;;;2.30;;
50012;SDS011;35901;48.694;9.476;2023-12-29T00:11:40;2.57;;;2.00;;
50012;SDS011;35901;48.694;9.476;2023-12-29T00:14:06;2.03;;;1.90;;
50012;SDS011;35901;48.694;9.476;2023-12-29T00:16:31;2.30;;;2.10;;
50012;SDS011;35901;48.694;9.476;2023-12-29T00:18:57;2.43;;;2.23;;
50012;SDS011;35901;48.694;9.476;2023-12-29T00:21:23;2.40;;;2.20;;
50012;SDS011;35901;48.694;9.476;2023-12-29T00:23:48;2.07;;;1.97;;
50012;SDS011;35901;48.694;9.476;2023-12-29T00:26:17;2.13;;;2.00;;
50012;SDS011;35901;48.694;9.476;2023-12-29T00:28:47;2.40;;;2.20;;
50012;SDS011;35901;48.694;9.476;2023-12-29T00:31:25;2.30;;;2.10;;
50012;SDS011;35901;48.694;9.476;2023-12-29T00:33:50;2.80;;;2.10;;
50012;SDS011;35901;48.694;9.476;2023-12-29T00:36:18;2.50;;;2.30;;
50012;SDS011;35901;48.694;9.476;2023-12-29T00:38:45;2.40;;;2.20;;
50012;SDS011;35901;48.694;9.476;2023-12-29T00:41:11;2.10;;;2.00;;
50012;SDS011;35901;48.694;9.476;2023-12-29T00:43:41;2.43;;;2.23;;
50012;SDS011;35901;48.694;9.476;2023-12-29T00:46:07;2.43;;;2.17;;
50012;SDS011;35901;48.694;9.476;2023-12-29T00:48:34;2.30;;;2.10;;
50012;SDS011;35901;48.694;9.476;2023-12-29T00:51:03;2.30;;;2.10;;
50012;SDS011;35901;48.694;9.476;2023-12-29T00:53:29;2.23;;;2.03;;
50012;SDS011;35901;48.694;9.476;2023-12-29T00:55:57;2.20;;;2.10;;
50012;SDS011;35901;48.694;9.476;2023-12-29T00:58:26;2.00;;;1.80;;
50012;SDS011;35901;48.694;9.476;2023-12-29T01:00:53;2.47;;;2.27;;
50012;SDS011;35901;48.694;9.476;2023-12-29T01:03:19;3.10;;;2.60;;
50012;SDS011;35901;48.694;9.476;2023-12-29T01:05:45;2.50;;;2.30;;
50012;SDS011;35901;48.694;9.476;2023-12-29T01:08:12;2.43;;;2.23;;
50012;SDS011;35901;48.694;9.476;2023-12-29T01:10:38;2.40;;;2.20;;
50012;SDS011;35901;48.694;9.476;2023-12-29T01:13:03;2.60;;;2.40;;
50012;SDS011;35901;48.694;9.476;2023-12-29T01:15:30;2.43;;;2.23;;
50012;SDS011;35901;48.694;9.476;2023-12-29T01:17:56;2.40;;;2.20;;
50012;SDS011;35901;48.694;9.476;2023-12-29T01:20:22;2.03;;;1.93;;
50012;SDS011;35901;48.694;9.476;2023-12-29T01:22:48;2.30;;;2.10;;
50012;SDS011;35901;48.694;9.476;2023-12-29T01:25:14;2.47;;;2.27;;
50012;SDS011;35901;48.694;9.476;2023-12-29T01:27:40;2.80;;;2.57;;
50012;SDS011;35901;48.694;9.476;2023-12-29T01:30:06;2.97;;;2.77;;
50012;SDS011;35901;48.694;9.476;2023-12-29T01:32:32;4.37;;;3.33;;
50012;SDS011;35901;48.694;9.476;2023-12-29T01:34:58;4.93;;;3.40;;
50012;SDS011;35901;48.694;9.476;2023-12-29T21:09:03;5.23;;;4.60;;
50012;SDS011;35901;48.694;9.476;2023-12-29T21:11:38;5.47;;;4.40;;
50012;SDS011;35901;48.694;9.476;2023-12-29T21:14:04;5.87;;;4.87;;
50012;SDS011;35901;48.694;9.476;2023-12-29T21:16:29;5.70;;;4.60;;
50012;SDS011;35901;48.694;9.476;2023-12-29T21:18:55;5.23;;;4.50;;
50012;SDS011;35901;48.694;9.476;2023-12-29T21:21:21;5.30;;;4.77;;
50012;SDS011;35901;48.694;9.476;2023-12-29T21:23:49;4.53;;;4.13;;
50012;SDS011;35901;48.694;9.476;2023-12-29T21:26:20;4.17;;;3.77;;
50012;SDS011;35901;48.694;9.476;2023-12-29T21:28:47;4.73;;;3.87;;
50012;SDS011;35901;48.694;9.476;2023-12-29T21:31:26;4.43;;;4.03;;
50012;SDS011;35901;48.694;9.476;2023-12-29T21:34:05;4.70;;;4.20;;
50012;SDS011;35901;48.694;9.476;2023-12-29T21:36:32;5.17;;;4.03;;
50012;SDS011;35901;48.694;9.476;2023-12-29T21:38:58;5.90;;;4.37;;
50012;SDS011;35901;48.694;9.476;2023-12-29T21:41:23;4.67;;;4.23;;
50012;SDS011;35901;48.694;9.476;2023-12-29T21:43:51;4.93;;;4.43;;
50012;SDS011;35901;48.694;9.476;2023-12-29T21:46:20;5.33;;;4.67;;
50012;SDS011;35901;48.694;9.476;2023-12-29T21:48:46;4.97;;;4.57;;
50012;SDS011;35901;48.694;9.476;2023-12-29T21:51:12;4.53;;;4.13;;
50012;SDS011;35901;48.694;9.476;2023-12-29T21:53:37;5.77;;;4.50;;
50012;SDS011;35901;48.694;9.476;2023-12-29T21:56:03;5.20;;;4.70;;
50012;SDS011;35901;48.694;9.476;2023-12-29T21:58:29;4.20;;;3.73;;
50012;SDS011;35901;48.694;9.476;2023-12-29T22:00:56;4.13;;;3.73;;
50012;SDS011;35901;48.694;9.476;2023-12-29T22:03:42;4.10;;;3.70;;
50012;SDS011;35901;48.694;9.476;2023-12-29T22:06:08;4.97;;;3.67;;
50012;SDS011;35901;48.694;9.476;2023-12-29T22:08:33;4.27;;;3.73;;
50012;SDS011;35901;48.694;9.476;2023-12-29T22:10:59;3.90;;;3.60;;
50012;SDS011;35901;48.694;9.476;2023-12-29T22:13:24;4.07;;;3.67;;
50012;SDS011;35901;48.694;9.476;2023-12-29T22:15:50;4.50;;;3.50;;
50012;SDS011;35901;48.694;9.476;2023-12-29T22:18:16;4.03;;;3.40;;
50012;SDS011;35901;48.694;9.476;2023-12-29T22:20:42;4.63;;;4.17;;
50012;SDS011;35901;48.694;9.476;2023-12-29T22:23:07;5.17;;;4.67;;
50012;SDS011;35901;48.694;9.476;2023-12-29T22:25:33;6.43;;;5.67;;
50012;SDS011;35901;48.694;9.476;2023-12-29T22:27:59;6.10;;;5.10;;
50012;SDS011;35901;48.694;9.476;2023-12-29T22:30:24;6.00;;;5.40;;
50012;SDS011;35901;48.694;9.476;2023-12-29T22:32:50;6.33;;;5.67;;
50012;SDS011;35901;48.694;9.476;2023-12-29T22:35:16;8.27;;;6.90;;
50012;SDS011;35901;48.694;9.476;2023-12-29T22:37:42;8.77;;;6.77;;
50012;SDS011;35901;48.694;9.476;2023-12-29T22:40:07;8.33;;;6.73;;
50012;SDS011;35901;48.694;9.476;2023-12-29T22:42:33;7.90;;;5.17;;
50012;SDS011;35901;48.694;9.476;2023-12-29T22:45:00;4.70;;;4.20;;
50012;SDS011;35901;48.694;9.476;2023-12-29T22:47:28;4.70;;;4.23;;
50012;SDS011;35901;48.694;9.476;2023-12-29T22:49:54;3.60;;;3.30;;
50012;SDS011;35901;48.694;9.476;2023-12-29T22:52:20;4.20;;;3.77;;
50012;SDS011;35901;48.694;9.476;2023-12-29T22:54:45;3.67;;;3.13;;
50012;SDS011;35901;48.694;9.476;2023-12-29T22:57:11;3.27;;;2.97;;
50012;SDS011;35901;48.694;9.476;2023-12-29T22:59:37;3.10;;;2.80;;
50012;SDS011;35901;48.694;9.476;2023-12-29T23:02:03;3.40;;;3.03;;
50012;SDS011;35901;48.694;9.476;2023-12-29T23:04:29;3.70;;;3.40;;
50012;SDS011;35901;48.694;9.476;2023-12-29T23:06:58;4.43;;;3.00;;
50012;SDS011;35901;48.694;9.476;2023-12-29T23:09:23;2.90;;;2.70;;
50012;SDS011;35901;48.694;9.476;2023-12-29T23:11:49;3.40;;;2.80;;
50012;SDS011;35901;48.694;9.476;2023-12-29T23:14:15;3.27;;;2.83;;
50012;SDS011;35901;48.694;9.476;2023-12-29T23:16:43;4.00;;;2.83;;
50012;SDS011;35901;48.694;9.476;2023-12-29T23:19:09;2.90;;;2.60;;
50012;SDS011;35901;48.694;9.476;2023-12-29T23:21:35;2.60;;;2.40;;
50012;SDS011;35901;48.694;9.476;2023-12-29T23:24:00;2.63;;;2.40;;
50012;SDS011;35901;48.694;9.476;2023-12-29T23:26:26;3.73;;;3.03;;
50012;SDS011;35901;48.694;9.476;2023-12-29T23:28:52;3.97;;;3.33;;
50012;SDS011;35901;48.694;9.476;2023-12-29T23:31:17;2.97;;;2.70;;
50012;SDS011;35901;48.694;9.476;2023-12-29T23:33:43;3.00;;;2.80;;
50012;SDS011;35901;48.694;9.476;2023-12-29T23:36:09;3.57;;;3.13;;
50012;SDS011;35901;48.694;9.476;2023-12-29T23:38:34;4.77;;;2.73;;
50012;SDS011;35901;48.694;9.476;2023-12-29T23:41:00;2.97;;;2.67;;
50012;SDS011;35901;48.694;9.476;2023-12-29T23:43:25;3.07;;;2.77;;
50012;SDS011;35901;48.694;9.476;2023-12-29T23:45:51;2.70;;;2.50;;
50012;SDS011;35901;48.694;9.476;2023-12-29T23:48:17;3.23;;;2.30;;
50012;SDS011;35901;48.694;9.476;2023-12-29T23:50:44;2.40;;;2.20;;
50012;SDS011;35901;48.694;9.476;2023-12-29T23:53:10;3.30;;;2.27;;
50012;SDS011;35901;48.694;9.476;2023-12-29T23:55:36;3.07;;;2.33;;
50012;SDS011;35901;48.694;9.476;2023-12-29T23:58:02;2.70;;;2.50;;
